AirNav   Air Wisconsin Up To $57,000 Bonus
 
 342 users online  

22FD Destin Emergency Care Center Heliport
Destin, Florida, USA

GOING TO DESTIN?


FAA INFORMATION EFFECTIVE 10 OCTOBER 2019

Location

FAA Identifier: 22FD
Lat/Long: 30-23-38.0000N 086-28-17.0000W
30-23.633333N 086-28.283333W
30.3938889,-86.4713889
(estimated)
Elevation: 13 ft. / 4 m (estimated)
Time zone: UTC -5 (UTC -6 during Standard Time)
Zip code: 32541

Heliport Operations

Heliport use: Private use, MEDICAL USE.
Activation date: 01/2007
Control tower: no
ARTCC: JACKSONVILLE CENTER
FSS: GAINESVILLE FLIGHT SERVICE STATION
Attendance: CONTINUOUS
Wind indicator: lighted
Segmented circle: no
Lights: SS-SR
Beacon: white-green-yellow (heliport)

Heliport Communications

WX ASOS at DTS (0.4 nm N): PHONE 850-654-7128

Nearby radio navigation aids

VOR radial/distance  VOR name  Freq  Var
CEWr155/28.1CRESTVIEW VORTAC115.9003E

 
NDB name  Hdg/Dist  Freq  Var  ID
LYNNE280/35.927804WPFN .--. ..-. -.
PICKENS096/36.732602WPKZ .--. -.- --..

Heliport Services

Runway Information

Helipad H1

Dimensions: 20 x 20 ft. / 6 x 6 m
Surface: concrete
Latitude: 30-23.633333N
Longitude: 086-28.283333W
Elevation: 13.0 ft.
Traffic pattern: leftleft

Heliport Ownership and Management from official FAA records

Ownership: Privately-owned
Owner: FT WALTON BEACH MEDICAL CENTER
1000 MAR WALT DRIVE
FT WALTON BEACH, FL 32547
Phone 850-862-1111
DESTIN EMERGENCY CARE CENTER IS LCTD AT 496 AIRPORT ROAD, DESTIN FL 32541.
Manager: ROBERT SETTLES
1000 MAR WALT DRIVE
FT WALTON BEACH, FL 32547
Phone 850-863-7540
FACILITIES SERVICE MANAGER TIM ANDERSON 996 AIRPORT RD DESTIN, FL 32541 850-635-9068

Additional Remarks

ALL DEPT HELOS CTC EGLIN CLNC DLVY ON 121.6 OR 122.7
FOR CD CTC EGLIN APCH 850-882-9152 OR 850-882-9151.

Instrument Procedures

There are no published instrument procedures at 22FD.

Some nearby airports with instrument procedures:

KDTS - Destin Executive Airport (0 nm N)
KVPS - Eglin Air Force Base/Destin-Fort Walton Beach Airport (6 nm NW)
KHRT - Hurlburt Field Airport (11 nm W)
KEGI - Duke Field (Eglin AF Aux Nr 3) Airport (16 nm N)
KCEW - Bob Sikes Airport (23 nm N)
 
Loc | Ops | Rwys | IFR | FBO | Links
Com | Nav | Svcs | Stats | Notes
Aerial photo
No photo
 
Sectional chart

 
Airport distance calculator
Flying to Destin Emergency Care Center Heliport? Find the distance to fly.

From to 22FD

Sunrise and sunset
Times for 19-Oct-2019
 Local
(UTC-5)
 Zulu
(UTC)
Morning civil twilight06:2711:27
Sunrise06:5211:52
Sunset18:1023:10
Evening civil twilight18:3423:34

Current date and time
Zulu (UTC)  19-Oct-2019 05:51:21
Local (UTC-5)  19-Oct-2019 00:51:21
 
METAR
KDTS 190453Z AUTO 05010G19KT 4SM +RA BR OVC007 18/17 A2972 RMK AO2 CIG 005V011 SLP064 P0007 T01780167
KVPS 
5nm NW 
190526Z AUTO 02010KT 10SM -RA OVC007 16/15 A2971 RMK AO2 CIG 005 RWY01 CIG 006 RWY19 CIG 005 RWY30 SLP067 $
KHRT 
10nm W 
190457Z 04012G18KT 6SM RA OVC010 15/14 A2971 RMK SLP063 P0007 T01540141
KEGI 
15nm N 
190456Z 04011KT 9SM -RA OVC013 15/14 A2976 RMK AO2A SLP078 P0001 T01490144 $
TAF
KVPS 
5nm NW 
190400Z 1904/2007 06010G15KT 9999 -RA OVC008 WS015/10030KT QNH2972INS BECMG 1904/1905 06012G20KT 6000 RA BKN007 QNH2966INS BECMG 1906/1907 06020G35KT 4800 RA BKN005 QNH2960INS BECMG 1908/1909 02015G25KT 8000 -RA OVC004 QNH2962INS BECMG 1911/1912 35012G20KT 9000 -RA OVC007 QNH2964INS BECMG 1915/1916 33012KT 9999 NSW BKN015 QNH2970INS BECMG 2005/2006 34006KT 9999 FEW010 QNH2980INS TX21/1920Z TN14/1905Z
KHRT 
10nm W 
190200Z 1902/2008 07015G20KT 8000 RA FEW003 OVC015 621404 QNH2974INS TEMPO 1902/1905 09020G30KT BECMG 1904/1905 09015G20KT 8000 RA BKN010 OVC020 621503 QNH2967INS BECMG 1907/1908 06020G30KT 8000 RA BKN015 OVC030 621604 QNH2957INS BECMG 1911/1912 02010G18KT 9999 NSW SCT015 OVC100 QNH2958INS BECMG 2000/2001 34009KT 9999 SCT010 BKN080 QNH2969INS TX23/1918Z TN15/1902Z
KEGI 
15nm N 
190400Z 1904/2007 09012G20KT 8000 -RA BKN010 OVC020 QNH2976INS BECMG 1905/1906 09012G20KT 8000 -RA BKN007 OVC020 QNH2972INS BECMG 1906/1907 07020G30KT 4800 RA BKN007 OVC020 QNH2963INS BECMG 1908/1909 07015G25KT 8000 -RA BKN007 OVC020 QNH2962INS BECMG 1913/1914 35012G20KT 8000 -RA BKN010 BKN120 QNH2965INS BECMG 1916/1917 33010G15KT 9999 NSW BKN015 BKN120 QNH2966INS BECMG 1920/1921 32012KT 9999 BKN020 QNH2968INS BECMG 2004/2005 32006KT 9999 SCT010 SCT050 QNH2981INS TX18/1912Z TN14/1921Z
NOTAMs
Click for the latest NOTAMs
NOTAMs are issued by the DoD/FAA and will open in a separate window not controlled by AirNav.

 

 
 

Would you like to see your business listed on this page?

 If your business provides an interesting product or service to pilots, flight crews, aircraft, or users of the Destin Emergency Care Center Heliport, you should consider listing it here.  To start the listing process, click on the button below
 
Add a business
 

Other Pages about Destin Emergency Care Center Heliport

Update a link
 
Copyright © AirNav, LLC. All rights reserved. Privacy Policy  Contact